sensor_id;sensor_type;location;lat;lon;timestamp;temperature;humidity
44886;DHT22;36669;51.428;21.162;2023-03-01T00:01:40;-3.30;99.90
44886;DHT22;36669;51.428;21.162;2023-03-01T00:04:08;-3.40;99.90
44886;DHT22;36669;51.428;21.162;2023-03-01T00:06:35;-3.40;99.90
44886;DHT22;36669;51.428;21.162;2023-03-01T00:09:04;-3.50;99.90
44886;DHT22;36669;51.428;21.162;2023-03-01T00:11:31;-3.50;99.90
44886;DHT22;36669;51.428;21.162;2023-03-01T00:14:00;-3.50;99.90
44886;DHT22;36669;51.428;21.162;2023-03-01T00:16:30;-3.50;99.90
44886;DHT22;36669;51.428;21.162;2023-03-01T00:19:03;-3.50;99.90
44886;DHT22;36669;51.428;21.162;2023-03-01T00:21:38;-3.50;99.90
44886;DHT22;36669;51.428;21.162;2023-03-01T00:24:08;-3.50;99.90
44886;DHT22;36669;51.428;21.162;2023-03-01T00:26:36;-3.50;99.90
44886;DHT22;36669;51.428;21.162;2023-03-01T00:29:04;-3.50;99.90
44886;DHT22;36669;51.428;21.162;2023-03-01T00:31:35;-3.50;99.90
44886;DHT22;36669;51.428;21.162;2023-03-01T00:34:04;-3.50;99.90
44886;DHT22;36669;51.428;21.162;2023-03-01T00:36:33;-3.40;99.90
44886;DHT22;36669;51.428;21.162;2023-03-01T00:39:03;-3.40;99.90
44886;DHT22;36669;51.428;21.162;2023-03-01T00:41:31;-3.40;99.90
44886;DHT22;36669;51.428;21.162;2023-03-01T00:44:02;-3.40;99.90
44886;DHT22;36669;51.428;21.162;2023-03-01T00:46:29;-3.40;99.90
44886;DHT22;36669;51.428;21.162;2023-03-01T00:48:57;-3.40;99.90
44886;DHT22;36669;51.428;21.162;2023-03-01T00:51:26;-3.40;99.90
44886;DHT22;36669;51.428;21.162;2023-03-01T00:53:56;-3.30;99.90
44886;DHT22;36669;51.428;21.162;2023-03-01T00:56:29;-3.40;99.90
44886;DHT22;36669;51.428;21.162;2023-03-01T00:59:00;-3.40;99.90
44886;DHT22;36669;51.428;21.162;2023-03-01T01:01:28;-3.30;99.90
44886;DHT22;36669;51.428;21.162;2023-03-01T01:04:03;-3.30;99.90
44886;DHT22;36669;51.428;21.162;2023-03-01T01:06:33;-3.30;99.90
44886;DHT22;36669;51.428;21.162;2023-03-01T01:09:02;-3.20;99.90
44886;DHT22;36669;51.428;21.162;2023-03-01T01:11:30;-3.20;99.90
44886;DHT22;36669;51.428;21.162;2023-03-01T01:13:58;-3.20;99.90
44886;DHT22;36669;51.428;21.162;2023-03-01T01:16:26;-3.10;99.90
44886;DHT22;36669;51.428;21.162;2023-03-01T01:18:53;-3.10;99.90
44886;DHT22;36669;51.428;21.162;2023-03-01T01:21:23;-3.10;99.90
44886;DHT22;36669;51.428;21.162;2023-03-01T01:23:51;-3.20;99.90
44886;DHT22;36669;51.428;21.162;2023-03-01T01:26:38;-3.20;99.90
44886;DHT22;36669;51.428;21.162;2023-03-01T01:29:06;-3.20;99.90
44886;DHT22;36669;51.428;21.162;2023-03-01T01:31:37;-3.20;99.90
44886;DHT22;36669;51.428;21.162;2023-03-01T01:34:05;-3.30;99.90
44886;DHT22;36669;51.428;21.162;2023-03-01T01:36:34;-3.40;99.90
44886;DHT22;36669;51.428;21.162;2023-03-01T01:39:01;-3.40;99.90
44886;DHT22;36669;51.428;21.162;2023-03-01T01:41:29;-3.40;99.90
44886;DHT22;36669;51.428;21.162;2023-03-01T01:44:20;-3.30;99.90
44886;DHT22;36669;51.428;21.162;2023-03-01T01:47:02;-3.30;99.90
44886;DHT22;36669;51.428;21.162;2023-03-01T01:49:54;-3.30;99.90
44886;DHT22;36669;51.428;21.162;2023-03-01T01:52:34;-3.30;99.90
44886;DHT22;36669;51.428;21.162;2023-03-01T01:55:14;-3.30;99.90
44886;DHT22;36669;51.428;21.162;2023-03-01T01:57:45;-3.30;99.90
44886;DHT22;36669;51.428;21.162;2023-03-01T02:00:23;-3.30;99.90
44886;DHT22;36669;51.428;21.162;2023-03-01T02:02:55;-3.20;99.90
44886;DHT22;36669;51.428;21.162;2023-03-01T02:08:08;-3.10;99.90
44886;DHT22;36669;51.428;21.162;2023-03-01T02:10:37;-3.20;99.90
44886;DHT22;36669;51.428;21.162;2023-03-01T02:13:05;-3.20;99.90
44886;DHT22;36669;51.428;21.162;2023-03-01T02:15:36;-3.20;99.90
44886;DHT22;36669;51.428;21.162;2023-03-01T02:18:05;-3.20;99.90
44886;DHT22;36669;51.428;21.162;2023-03-01T02:23:18;-3.20;99.90
44886;DHT22;36669;51.428;21.162;2023-03-01T02:26:18;-3.10;99.90
44886;DHT22;36669;51.428;21.162;2023-03-01T02:28:47;-3.10;99.90
44886;DHT22;36669;51.428;21.162;2023-03-01T02:31:19;-3.10;99.90
44886;DHT22;36669;51.428;21.162;2023-03-01T02:34:18;-3.10;99.90
44886;DHT22;36669;51.428;21.162;2023-03-01T02:37:07;-3.20;99.90
44886;DHT22;36669;51.428;21.162;2023-03-01T02:39:40;-3.20;99.90
44886;DHT22;36669;51.428;21.162;2023-03-01T02:42:15;-3.20;99.90
44886;DHT22;36669;51.428;21.162;2023-03-01T02:44:52;-3.30;99.90
44886;DHT22;36669;51.428;21.162;2023-03-01T02:47:19;-3.30;99.90
44886;DHT22;36669;51.428;21.162;2023-03-01T02:49:45;-3.30;99.90
44886;DHT22;36669;51.428;21.162;2023-03-01T02:55:13;-3.50;99.90
44886;DHT22;36669;51.428;21.162;2023-03-01T02:57:44;-3.60;99.90
44886;DHT22;36669;51.428;21.162;2023-03-01T03:00:18;-3.70;99.90
44886;DHT22;36669;51.428;21.162;2023-03-01T03:02:50;-3.70;99.90
44886;DHT22;36669;51.428;21.162;2023-03-01T03:05:22;-3.70;99.90
44886;DHT22;36669;51.428;21.162;2023-03-01T03:07:50;-3.70;99.90
44886;DHT22;36669;51.428;21.162;2023-03-01T03:10:32;-3.80;99.90
44886;DHT22;36669;51.428;21.162;2023-03-01T03:13:14;-3.90;99.90
44886;DHT22;36669;51.428;21.162;2023-03-01T03:15:41;-3.90;99.90
44886;DHT22;36669;51.428;21.162;2023-03-01T03:18:14;-3.90;99.90
44886;DHT22;36669;51.428;21.162;2023-03-01T03:20:42;-3.90;99.90
44886;DHT22;36669;51.428;21.162;2023-03-01T03:23:10;-4.00;99.90
44886;DHT22;36669;51.428;21.162;2023-03-01T03:25:37;-4.00;99.90
44886;DHT22;36669;51.428;21.162;2023-03-01T03:28:04;-4.10;99.90
44886;DHT22;36669;51.428;21.162;2023-03-01T03:30:38;-4.10;99.90
44886;DHT22;36669;51.428;21.162;2023-03-01T03:33:06;-4.10;99.90
44886;DHT22;36669;51.428;21.162;2023-03-01T03:35:39;-4.10;99.90
44886;DHT22;36669;51.428;21.162;2023-03-01T03:38:18;-4.10;99.90
44886;DHT22;36669;51.428;21.162;2023-03-01T03:40:51;-4.10;99.90
44886;DHT22;36669;51.428;21.162;2023-03-01T03:43:23;-4.10;99.90
44886;DHT22;36669;51.428;21.162;2023-03-01T03:45:54;-4.10;99.90
44886;DHT22;36669;51.428;21.162;2023-03-01T03:48:22;-4.10;99.90
44886;DHT22;36669;51.428;21.162;2023-03-01T03:50:51;-4.10;99.90
44886;DHT22;36669;51.428;21.162;2023-03-01T03:53:18;-4.10;99.90
44886;DHT22;36669;51.428;21.162;2023-03-01T03:55:45;-4.10;99.90
44886;DHT22;36669;51.428;21.162;2023-03-01T03:58:17;-4.10;99.90
44886;DHT22;36669;51.428;21.162;2023-03-01T04:00:48;-4.10;99.90
44886;DHT22;36669;51.428;21.162;2023-03-01T04:03:20;-4.10;99.90
44886;DHT22;36669;51.428;21.162;2023-03-01T04:05:47;-4.10;99.90
44886;DHT22;36669;51.428;21.162;2023-03-01T04:08:20;-4.10;99.90
44886;DHT22;36669;51.428;21.162;2023-03-01T04:11:05;-4.10;99.90
44886;DHT22;36669;51.428;21.162;2023-03-01T04:13:57;-4.20;99.90
44886;DHT22;36669;51.428;21.162;2023-03-01T04:16:24;-4.20;99.90
44886;DHT22;36669;51.428;21.162;2023-03-01T04:18:51;-4.20;99.90
44886;DHT22;36669;51.428;21.162;2023-03-01T04:21:20;-4.20;99.90
44886;DHT22;36669;51.428;21.162;2023-03-01T04:23:47;-4.30;99.90
44886;DHT22;36669;51.428;21.162;2023-03-01T04:26:18;-4.20;99.90
44886;DHT22;36669;51.428;21.162;2023-03-01T04:28:46;-4.20;99.90
44886;DHT22;36669;51.428;21.162;2023-03-01T04:31:17;-4.30;99.90
44886;DHT22;36669;51.428;21.162;2023-03-01T04:33:50;-4.30;99.90
44886;DHT22;36669;51.428;21.162;2023-03-01T04:36:26;-4.30;99.90
44886;DHT22;36669;51.428;21.162;2023-03-01T04:38:54;-4.30;99.90
44886;DHT22;36669;51.428;21.162;2023-03-01T04:41:23;-4.40;99.90
44886;DHT22;36669;51.428;21.162;2023-03-01T04:43:56;-4.40;99.90
44886;DHT22;36669;51.428;21.162;2023-03-01T04:46:23;-4.30;99.90
44886;DHT22;36669;51.428;21.162;2023-03-01T04:48:50;-4.40;99.90
44886;DHT22;36669;51.428;21.162;2023-03-01T04:51:16;-4.40;99.90
44886;DHT22;36669;51.428;21.162;2023-03-01T04:53:44;-4.40;99.90
44886;DHT22;36669;51.428;21.162;2023-03-01T04:56:10;-4.40;99.90
44886;DHT22;36669;51.428;21.162;2023-03-01T04:58:38;-4.40;99.90
44886;DHT22;36669;51.428;21.162;2023-03-01T05:01:17;-4.40;99.90
44886;DHT22;36669;51.428;21.162;2023-03-01T05:03:47;-4.40;99.90
44886;DHT22;36669;51.428;21.162;2023-03-01T05:06:14;-4.40;99.90
44886;DHT22;36669;51.428;21.162;2023-03-01T05:08:44;-4.30;99.90
44886;DHT22;36669;51.428;21.162;2023-03-01T05:11:13;-4.40;99.90
44886;DHT22;36669;51.428;21.162;2023-03-01T05:13:40;-4.40;99.90
44886;DHT22;36669;51.428;21.162;2023-03-01T05:16:07;-4.40;99.90
44886;DHT22;36669;51.428;21.162;2023-03-01T05:18:38;-4.40;99.90
44886;DHT22;36669;51.428;21.162;2023-03-01T05:21:10;-4.40;99.90
44886;DHT22;36669;51.428;21.162;2023-03-01T05:23:42;-4.50;99.90
44886;DHT22;36669;51.428;21.162;2023-03-01T05:26:08;-4.50;99.90
44886;DHT22;36669;51.428;21.162;2023-03-01T05:28:36;-4.40;99.90
44886;DHT22;36669;51.428;21.162;2023-03-01T05:31:06;-4.40;99.90
44886;DHT22;36669;51.428;21.162;2023-03-01T05:33:37;-4.40;99.90
44886;DHT22;36669;51.428;21.162;2023-03-01T05:36:06;-4.40;99.90
44886;DHT22;36669;51.428;21.162;2023-03-01T05:38:35;-4.40;99.90
44886;DHT22;36669;51.428;21.162;2023-03-01T05:41:02;-4.30;99.90
44886;DHT22;36669;51.428;21.162;2023-03-01T05:43:31;-4.30;99.90
44886;DHT22;36669;51.428;21.162;2023-03-01T05:45:59;-4.30;99.90
44886;DHT22;36669;51.428;21.162;2023-03-01T05:48:27;-4.30;99.90
44886;DHT22;36669;51.428;21.162;2023-03-01T05:50:58;-4.20;99.90
44886;DHT22;36669;51.428;21.162;2023-03-01T05:53:27;-4.20;99.90
44886;DHT22;36669;51.428;21.162;2023-03-01T05:55:54;-4.20;99.90
44886;DHT22;36669;51.428;21.162;2023-03-01T05:58:20;-4.20;99.90
44886;DHT22;36669;51.428;21.162;2023-03-01T06:00:49;-4.10;99.90
44886;DHT22;36669;51.428;21.162;2023-03-01T06:03:17;-4.10;99.90
44886;DHT22;36669;51.428;21.162;2023-03-01T06:05:43;-4.00;99.90
44886;DHT22;36669;51.428;21.162;2023-03-01T06:08:11;-4.00;99.90
44886;DHT22;36669;51.428;21.162;2023-03-01T06:10:37;-4.00;99.90
44886;DHT22;36669;51.428;21.162;2023-03-01T06:13:03;-4.00;99.90
44886;DHT22;36669;51.428;21.162;2023-03-01T06:15:30;-3.90;99.90
44886;DHT22;36669;51.428;21.162;2023-03-01T06:17:56;-3.80;99.90
44886;DHT22;36669;51.428;21.162;2023-03-01T06:20:26;-3.70;99.90
44886;DHT22;36669;51.428;21.162;2023-03-01T06:22:53;-3.70;99.90
44886;DHT22;36669;51.428;21.162;2023-03-01T06:25:23;-3.60;99.90
44886;DHT22;36669;51.428;21.162;2023-03-01T06:27:52;-3.50;99.90
44886;DHT22;36669;51.428;21.162;2023-03-01T06:30:20;-3.50;99.90
44886;DHT22;36669;51.428;21.162;2023-03-01T06:32:48;-3.40;99.90
44886;DHT22;36669;51.428;21.162;2023-03-01T06:35:15;-3.30;99.90
44886;DHT22;36669;51.428;21.162;2023-03-01T06:37:50;-3.20;99.90
44886;DHT22;36669;51.428;21.162;2023-03-01T06:40:16;-3.00;99.90
44886;DHT22;36669;51.428;21.162;2023-03-01T06:42:48;-2.90;99.90
44886;DHT22;36669;51.428;21.162;2023-03-01T06:45:14;-2.90;99.90
44886;DHT22;36669;51.428;21.162;2023-03-01T06:47:42;-2.80;99.90
44886;DHT22;36669;51.428;21.162;2023-03-01T06:50:08;-2.70;99.90
44886;DHT22;36669;51.428;21.162;2023-03-01T06:52:34;-2.60;99.90
44886;DHT22;36669;51.428;21.162;2023-03-01T06:55:01;-2.60;99.90
44886;DHT22;36669;51.428;21.162;2023-03-01T06:57:28;-2.40;99.90
44886;DHT22;36669;51.428;21.162;2023-03-01T06:59:55;-2.30;99.90
44886;DHT22;36669;51.428;21.162;2023-03-01T07:02:21;-2.20;99.90
44886;DHT22;36669;51.428;21.162;2023-03-01T07:04:49;-2.20;99.90
44886;DHT22;36669;51.428;21.162;2023-03-01T07:07:17;-2.10;99.90
44886;DHT22;36669;51.428;21.162;2023-03-01T07:09:45;-2.00;99.90
44886;DHT22;36669;51.428;21.162;2023-03-01T07:12:12;-1.90;99.90
44886;DHT22;36669;51.428;21.162;2023-03-01T07:14:39;-1.80;99.90
44886;DHT22;36669;51.428;21.162;2023-03-01T07:17:05;-1.70;99.90
44886;DHT22;36669;51.428;21.162;2023-03-01T07:19:33;-1.60;99.90
44886;DHT22;36669;51.428;21.162;2023-03-01T07:22:02;-1.50;99.90
44886;DHT22;36669;51.428;21.162;2023-03-01T07:24:30;-1.40;99.90
44886;DHT22;36669;51.428;21.162;2023-03-01T07:26:56;-1.30;99.90
44886;DHT22;36669;51.428;21.162;2023-03-01T07:29:23;-1.20;99.90
44886;DHT22;36669;51.428;21.162;2023-03-01T07:31:49;-1.10;99.90
44886;DHT22;36669;51.428;21.162;2023-03-01T07:34:17;-1.00;99.90
44886;DHT22;36669;51.428;21.162;2023-03-01T07:36:46;-0.90;99.90
44886;DHT22;36669;51.428;21.162;2023-03-01T07:39:14;-0.80;99.90
44886;DHT22;36669;51.428;21.162;2023-03-01T07:41:42;-0.70;99.90
44886;DHT22;36669;51.428;21.162;2023-03-01T07:44:09;-0.60;99.90
44886;DHT22;36669;51.428;21.162;2023-03-01T07:46:36;-0.50;99.90
44886;DHT22;36669;51.428;21.162;2023-03-01T07:49:02;-0.40;99.90
44886;DHT22;36669;51.428;21.162;2023-03-01T07:51:31;-0.30;99.90
44886;DHT22;36669;51.428;21.162;2023-03-01T07:53:59;-0.20;99.90
44886;DHT22;36669;51.428;21.162;2023-03-01T07:56:26;-0.10;99.90
44886;DHT22;36669;51.428;21.162;2023-03-01T07:58:55;-0.10;99.90
44886;DHT22;36669;51.428;21.162;2023-03-01T08:01:22;0.10;99.90
44886;DHT22;36669;51.428;21.162;2023-03-01T08:03:50;0.20;99.90
44886;DHT22;36669;51.428;21.162;2023-03-01T08:06:17;0.30;99.90
44886;DHT22;36669;51.428;21.162;2023-03-01T08:08:48;0.30;99.90
44886;DHT22;36669;51.428;21.162;2023-03-01T08:11:15;0.40;99.90
44886;DHT22;36669;51.428;21.162;2023-03-01T08:13:42;0.40;99.90
44886;DHT22;36669;51.428;21.162;2023-03-01T08:16:12;0.50;99.90
44886;DHT22;36669;51.428;21.162;2023-03-01T08:18:38;0.60;99.90
44886;DHT22;36669;51.428;21.162;2023-03-01T08:21:05;0.70;99.90
44886;DHT22;36669;51.428;21.162;2023-03-01T08:23:32;0.90;99.90
44886;DHT22;36669;51.428;21.162;2023-03-01T08:26:23;0.80;99.90
44886;DHT22;36669;51.428;21.162;2023-03-01T08:28:51;0.80;99.90
44886;DHT22;36669;51.428;21.162;2023-03-01T08:31:51;0.70;99.90
44886;DHT22;36669;51.428;21.162;2023-03-01T08:34:13;0.80;99.90
44886;DHT22;36669;51.428;21.162;2023-03-01T08:36:44;1.00;99.90
44886;DHT22;36669;51.428;21.162;2023-03-01T08:39:15;1.00;99.90
44886;DHT22;36669;51.428;21.162;2023-03-01T08:41:45;1.10;99.90
44886;DHT22;36669;51.428;21.162;2023-03-01T08:44:14;1.20;99.90
44886;DHT22;36669;51.428;21.162;2023-03-01T08:46:42;1.20;99.90
44886;DHT22;36669;51.428;21.162;2023-03-01T08:49:16;1.20;99.90
44886;DHT22;36669;51.428;21.162;2023-03-01T08:51:48;1.20;99.90
44886;DHT22;36669;51.428;21.162;2023-03-01T08:54:19;1.20;99.90
44886;DHT22;36669;51.428;21.162;2023-03-01T08:56:46;1.30;99.90
44886;DHT22;36669;51.428;21.162;2023-03-01T08:59:15;1.50;99.90
44886;DHT22;36669;51.428;21.162;2023-03-01T09:01:51;1.60;99.90
44886;DHT22;36669;51.428;21.162;2023-03-01T09:04:21;1.60;99.90
44886;DHT22;36669;51.428;21.162;2023-03-01T09:06:48;1.70;99.90
44886;DHT22;36669;51.428;21.162;2023-03-01T09:09:16;1.70;99.90
44886;DHT22;36669;51.428;21.162;2023-03-01T09:11:45;1.80;99.90
44886;DHT22;36669;51.428;21.162;2023-03-01T09:14:13;1.90;99.90
44886;DHT22;36669;51.428;21.162;2023-03-01T09:16:40;2.00;99.90
44886;DHT22;36669;51.428;21.162;2023-03-01T09:19:08;2.10;99.90
44886;DHT22;36669;51.428;21.162;2023-03-01T09:21:33;2.10;99.90
44886;DHT22;36669;51.428;21.162;2023-03-01T09:24:02;2.20;99.90
44886;DHT22;36669;51.428;21.162;2023-03-01T09:26:29;2.20;99.90
44886;DHT22;36669;51.428;21.162;2023-03-01T09:28:56;2.20;99.90
44886;DHT22;36669;51.428;21.162;2023-03-01T09:31:23;2.40;99.90
44886;DHT22;36669;51.428;21.162;2023-03-01T09:33:53;2.50;99.90
44886;DHT22;36669;51.428;21.162;2023-03-01T09:36:23;2.70;99.90
44886;DHT22;36669;51.428;21.162;2023-03-01T09:38:53;2.70;99.90
44886;DHT22;36669;51.428;21.162;2023-03-01T09:44:42;2.80;99.90
44886;DHT22;36669;51.428;21.162;2023-03-01T09:47:17;2.70;99.90
44886;DHT22;36669;51.428;21.162;2023-03-01T09:49:51;2.80;99.90
44886;DHT22;36669;51.428;21.162;2023-03-01T09:55:13;2.90;99.90
44886;DHT22;36669;51.428;21.162;2023-03-01T09:57:54;3.00;99.90
44886;DHT22;36669;51.428;21.162;2023-03-01T10:00:28;2.90;99.90
44886;DHT22;36669;51.428;21.162;2023-03-01T10:03:25;2.90;99.90
44886;DHT22;36669;51.428;21.162;2023-03-01T10:06:19;3.00;99.90
44886;DHT22;36669;51.428;21.162;2023-03-01T10:09:21;3.10;99.90
44886;DHT22;36669;51.428;21.162;2023-03-01T10:11:53;3.20;99.90
44886;DHT22;36669;51.428;21.162;2023-03-01T10:14:43;3.20;99.90
44886;DHT22;36669;51.428;21.162;2023-03-01T10:17:51;3.30;99.90
44886;DHT22;36669;51.428;21.162;2023-03-01T10:20:41;3.50;99.90
44886;DHT22;36669;51.428;21.162;2023-03-01T10:23:14;3.60;99.90
44886;DHT22;36669;51.428;21.162;2023-03-01T10:31:23;3.90;99.90
44886;DHT22;36669;51.428;21.162;2023-03-01T10:33:56;4.00;99.90
44886;DHT22;36669;51.428;21.162;2023-03-01T10:36:24;3.90;99.90
44886;DHT22;36669;51.428;21.162;2023-03-01T10:38:55;4.10;99.90
44886;DHT22;36669;51.428;21.162;2023-03-01T10:41:26;4.10;99.90
44886;DHT22;36669;51.428;21.162;2023-03-01T10:44:01;4.30;99.90
44886;DHT22;36669;51.428;21.162;2023-03-01T10:46:37;4.20;99.90
44886;DHT22;36669;51.428;21.162;2023-03-01T10:49:22;4.20;99.90
44886;DHT22;36669;51.428;21.162;2023-03-01T10:51:56;4.20;99.90
44886;DHT22;36669;51.428;21.162;2023-03-01T10:54:36;4.30;99.90
44886;DHT22;36669;51.428;21.162;2023-03-01T10:57:04;4.60;99.90
44886;DHT22;36669;51.428;21.162;2023-03-01T10:59:38;4.70;99.90
44886;DHT22;36669;51.428;21.162;2023-03-01T11:05:13;4.90;99.90
44886;DHT22;36669;51.428;21.162;2023-03-01T11:07:56;4.90;99.90
44886;DHT22;36669;51.428;21.162;2023-03-01T11:10:36;5.20;99.90
44886;DHT22;36669;51.428;21.162;2023-03-01T11:13:15;5.30;99.90
44886;DHT22;36669;51.428;21.162;2023-03-01T11:16:00;5.10;99.90
44886;DHT22;36669;51.428;21.162;2023-03-01T11:18:26;5.20;99.90
44886;DHT22;36669;51.428;21.162;2023-03-01T11:20:58;5.40;99.90
44886;DHT22;36669;51.428;21.162;2023-03-01T11:23:30;5.80;99.90
44886;DHT22;36669;51.428;21.162;2023-03-01T11:26:13;5.50;99.90
44886;DHT22;36669;51.428;21.162;2023-03-01T11:28:44;5.20;99.90
44886;DHT22;36669;51.428;21.162;2023-03-01T11:31:14;5.30;99.90
44886;DHT22;36669;51.428;21.162;2023-03-01T11:34:00;5.60;98.90
44886;DHT22;36669;51.428;21.162;2023-03-01T11:37:15;5.60;97.90
44886;DHT22;36669;51.428;21.162;2023-03-01T11:40:03;5.70;98.00
44886;DHT22;36669;51.428;21.162;2023-03-01T11:43:26;6.20;95.80
44886;DHT22;36669;51.428;21.162;2023-03-01T12:29:14;6.90;90.30
44886;DHT22;36669;51.428;21.162;2023-03-01T12:40:39;7.50;90.30
44886;DHT22;36669;51.428;21.162;2023-03-01T12:47:03;7.40;88.50
44886;DHT22;36669;51.428;21.162;2023-03-01T12:49:38;7.50;88.50
44886;DHT22;36669;51.428;21.162;2023-03-01T12:52:41;7.60;87.30
44886;DHT22;36669;51.428;21.162;2023-03-01T12:58:32;7.80;85.10
44886;DHT22;36669;51.428;21.162;2023-03-01T13:10:11;8.30;86.70
44886;DHT22;36669;51.428;21.162;2023-03-01T13:12:53;8.50;84.90
44886;DHT22;36669;51.428;21.162;2023-03-01T13:15:35;8.90;84.80
44886;DHT22;36669;51.428;21.162;2023-03-01T13:26:14;10.00;78.70
44886;DHT22;36669;51.428;21.162;2023-03-01T13:33:58;8.70;77.10
44886;DHT22;36669;51.428;21.162;2023-03-01T13:39:33;9.10;79.30
44886;DHT22;36669;51.428;21.162;2023-03-01T13:42:35;9.10;78.20
44886;DHT22;36669;51.428;21.162;2023-03-01T13:48:10;8.90;78.00
44886;DHT22;36669;51.428;21.162;2023-03-01T13:50:47;8.60;79.30
44886;DHT22;36669;51.428;21.162;2023-03-01T13:53:18;9.10;79.40
44886;DHT22;36669;51.428;21.162;2023-03-01T13:55:55;8.90;78.90
44886;DHT22;36669;51.428;21.162;2023-03-01T13:58:30;9.70;78.70
44886;DHT22;36669;51.428;21.162;2023-03-01T14:01:05;9.70;76.60
44886;DHT22;36669;51.428;21.162;2023-03-01T14:03:40;9.60;75.90
44886;DHT22;36669;51.428;21.162;2023-03-01T14:06:19;9.50;77.00
44886;DHT22;36669;51.428;21.162;2023-03-01T14:09:10;9.70;77.30
44886;DHT22;36669;51.428;21.162;2023-03-01T14:20:23;11.10;74.30
44886;DHT22;36669;51.428;21.162;2023-03-01T14:22:56;11.70;71.40
44886;DHT22;36669;51.428;21.162;2023-03-01T14:25:28;11.50;71.10
44886;DHT22;36669;51.428;21.162;2023-03-01T14:28:02;11.60;70.90
44886;DHT22;36669;51.428;21.162;2023-03-01T14:31:00;12.00;71.10
44886;DHT22;36669;51.428;21.162;2023-03-01T14:33:34;12.40;69.00
44886;DHT22;36669;51.428;21.162;2023-03-01T14:36:08;11.90;66.40
44886;DHT22;36669;51.428;21.162;2023-03-01T14:38:48;11.60;67.40
44886;DHT22;36669;51.428;21.162;2023-03-01T14:41:27;10.80;68.60
44886;DHT22;36669;51.428;21.162;2023-03-01T14:43:58;9.80;71.50
44886;DHT22;36669;51.428;21.162;2023-03-01T14:46:38;9.30;73.70
44886;DHT22;36669;51.428;21.162;2023-03-01T14:49:22;8.80;75.50
44886;DHT22;36669;51.428;21.162;2023-03-01T14:52:04;8.70;78.00
44886;DHT22;36669;51.428;21.162;2023-03-01T14:54:48;8.60;79.10
44886;DHT22;36669;51.428;21.162;2023-03-01T14:59:59;8.40;80.60
44886;DHT22;36669;51.428;21.162;2023-03-01T15:02:31;8.40;81.50
44886;DHT22;36669;51.428;21.162;2023-03-01T15:05:00;8.80;81.20
44886;DHT22;36669;51.428;21.162;2023-03-01T15:07:31;9.10;79.70
44886;DHT22;36669;51.428;21.162;2023-03-01T15:10:02;9.50;78.70
44886;DHT22;36669;51.428;21.162;2023-03-01T15:14:58;10.20;76.60
44886;DHT22;36669;51.428;21.162;2023-03-01T15:17:37;10.50;76.30
44886;DHT22;36669;51.428;21.162;2023-03-01T15:20:25;11.00;74.70
44886;DHT22;36669;51.428;21.162;2023-03-01T15:22:55;10.80;74.10
44886;DHT22;36669;51.428;21.162;2023-03-01T15:25:24;10.70;74.30
44886;DHT22;36669;51.428;21.162;2023-03-01T15:27:54;10.70;73.30
44886;DHT22;36669;51.428;21.162;2023-03-01T15:30:34;10.70;73.40
44886;DHT22;36669;51.428;21.162;2023-03-01T15:33:25;11.00;73.10
44886;DHT22;36669;51.428;21.162;2023-03-01T15:36:00;10.80;73.10
44886;DHT22;36669;51.428;21.162;2023-03-01T15:38:54;10.80;72.80
44886;DHT22;36669;51.428;21.162;2023-03-01T15:41:46;10.50;73.00
44886;DHT22;36669;51.428;21.162;2023-03-01T15:44:35;9.50;75.00
44886;DHT22;36669;51.428;21.162;2023-03-01T15:47:03;9.20;77.40
44886;DHT22;36669;51.428;21.162;2023-03-01T15:49:42;9.00;78.80
44886;DHT22;36669;51.428;21.162;2023-03-01T15:52:22;8.80;79.70
44886;DHT22;36669;51.428;21.162;2023-03-01T15:54:59;8.60;80.40
44886;DHT22;36669;51.428;21.162;2023-03-01T15:57:27;8.30;81.20
44886;DHT22;36669;51.428;21.162;2023-03-01T15:59:54;8.10;82.40
44886;DHT22;36669;51.428;21.162;2023-03-01T16:02:22;8.00;83.40
44886;DHT22;36669;51.428;21.162;2023-03-01T16:04:48;7.80;84.30
44886;DHT22;36669;51.428;21.162;2023-03-01T16:07:16;7.80;85.20
44886;DHT22;36669;51.428;21.162;2023-03-01T16:09:44;7.30;86.80
44886;DHT22;36669;51.428;21.162;2023-03-01T16:12:15;7.10;89.00
44886;DHT22;36669;51.428;21.162;2023-03-01T16:14:43;6.80;90.50
44886;DHT22;36669;51.428;21.162;2023-03-01T16:17:10;6.40;91.70
44886;DHT22;36669;51.428;21.162;2023-03-01T16:19:38;6.20;93.50
44886;DHT22;36669;51.428;21.162;2023-03-01T16:22:05;6.00;95.60
44886;DHT22;36669;51.428;21.162;2023-03-01T16:24:33;5.80;97.80
44886;DHT22;36669;51.428;21.162;2023-03-01T16:27:02;5.60;99.90
44886;DHT22;36669;51.428;21.162;2023-03-01T16:29:30;5.40;99.90
44886;DHT22;36669;51.428;21.162;2023-03-01T16:32:00;5.30;99.90
44886;DHT22;36669;51.428;21.162;2023-03-01T16:34:26;5.20;99.90
44886;DHT22;36669;51.428;21.162;2023-03-01T16:36:53;5.10;99.90
44886;DHT22;36669;51.428;21.162;2023-03-01T16:39:20;5.00;99.90
44886;DHT22;36669;51.428;21.162;2023-03-01T16:41:46;5.00;99.90
44886;DHT22;36669;51.428;21.162;2023-03-01T16:44:14;4.90;99.90
44886;DHT22;36669;51.428;21.162;2023-03-01T16:46:43;4.80;99.90
44886;DHT22;36669;51.428;21.162;2023-03-01T16:49:10;4.70;99.90
44886;DHT22;36669;51.428;21.162;2023-03-01T16:51:36;4.60;99.90
44886;DHT22;36669;51.428;21.162;2023-03-01T16:54:03;4.50;99.90
44886;DHT22;36669;51.428;21.162;2023-03-01T16:56:31;4.40;99.90
44886;DHT22;36669;51.428;21.162;2023-03-01T16:59:01;4.30;99.90
44886;DHT22;36669;51.428;21.162;2023-03-01T17:01:29;4.40;99.90
44886;DHT22;36669;51.428;21.162;2023-03-01T17:04:02;4.40;99.90
44886;DHT22;36669;51.428;21.162;2023-03-01T17:06:28;4.40;99.90
44886;DHT22;36669;51.428;21.162;2023-03-01T17:08:54;4.30;99.90
44886;DHT22;36669;51.428;21.162;2023-03-01T17:11:22;4.30;99.90
44886;DHT22;36669;51.428;21.162;2023-03-01T17:13:50;4.30;99.90
44886;DHT22;36669;51.428;21.162;2023-03-01T17:16:18;4.30;99.90
44886;DHT22;36669;51.428;21.162;2023-03-01T17:18:45;4.20;99.90
44886;DHT22;36669;51.428;21.162;2023-03-01T17:21:13;4.10;99.90
44886;DHT22;36669;51.428;21.162;2023-03-01T17:23:43;4.00;99.90
44886;DHT22;36669;51.428;21.162;2023-03-01T17:26:13;3.80;99.90
44886;DHT22;36669;51.428;21.162;2023-03-01T17:28:40;3.60;99.90
44886;DHT22;36669;51.428;21.162;2023-03-01T17:31:11;3.50;99.90
44886;DHT22;36669;51.428;21.162;2023-03-01T17:33:38;3.50;99.90
44886;DHT22;36669;51.428;21.162;2023-03-01T17:36:06;3.60;99.90
44886;DHT22;36669;51.428;21.162;2023-03-01T17:38:33;3.50;99.90
44886;DHT22;36669;51.428;21.162;2023-03-01T17:41:01;3.40;99.90
44886;DHT22;36669;51.428;21.162;2023-03-01T17:43:29;3.30;99.90
44886;DHT22;36669;51.428;21.162;2023-03-01T17:45:56;3.20;99.90
44886;DHT22;36669;51.428;21.162;2023-03-01T17:48:26;3.20;99.90
44886;DHT22;36669;51.428;21.162;2023-03-01T17:50:54;3.20;99.90
44886;DHT22;36669;51.428;21.162;2023-03-01T17:53:22;3.20;99.90
44886;DHT22;36669;51.428;21.162;2023-03-01T17:55:59;3.20;99.90
44886;DHT22;36669;51.428;21.162;2023-03-01T17:58:27;3.10;99.90